createdAt,value
2018-05-11T00:00:32.138Z,92.74
2018-05-11T00:01:32.052Z,92.93
2018-05-11T00:02:31.997Z,92.12
2018-05-11T00:03:31.904Z,92.74
2018-05-11T00:04:31.846Z,92.21
2018-05-11T00:05:31.753Z,92.64
2018-05-11T00:06:31.679Z,92.88
2018-05-11T00:07:31.608Z,92.60
2018-05-11T00:08:31.537Z,92.69
2018-05-11T00:09:31.457Z,92.79
2018-05-11T00:10:31.390Z,93.07
2018-05-11T00:11:31.308Z,92.69
2018-05-11T00:12:31.234Z,93.26
2018-05-11T00:13:31.158Z,93.65
2018-05-11T00:14:31.092Z,93.36
2018-05-11T00:15:31.012Z,92.97
2018-05-11T00:16:30.940Z,92.79
2018-05-11T00:17:30.858Z,92.88
2018-05-11T00:18:30.788Z,92.79
2018-05-11T00:19:30.710Z,92.41
2018-05-11T00:20:30.641Z,92.69
2018-05-11T00:21:30.560Z,92.41
2018-05-11T00:22:30.493Z,92.31
2018-05-11T00:23:30.414Z,92.31
2018-05-11T00:24:30.343Z,92.31
2018-05-11T00:25:30.255Z,92.50
2018-05-11T00:26:30.195Z,92.41
2018-05-11T00:27:30.111Z,92.41
2018-05-11T00:28:30.043Z,92.69
2018-05-11T00:29:29.958Z,92.41
2018-05-11T00:30:29.894Z,92.97
2018-05-11T00:31:29.804Z,92.41
2018-05-11T00:32:29.739Z,92.60
2018-05-11T00:33:29.652Z,92.50
2018-05-11T00:34:29.595Z,92.60
2018-05-11T00:35:29.513Z,92.50
2018-05-11T00:36:29.440Z,92.79
2018-05-11T00:37:29.358Z,92.21
2018-05-11T00:38:29.298Z,92.60
2018-05-11T00:39:29.214Z,92.60
2018-05-11T00:40:29.137Z,92.41
2018-05-11T00:41:29.064Z,92.97
2018-05-11T00:42:28.991Z,93.26
2018-05-11T00:43:28.915Z,92.60
2018-05-11T00:44:28.845Z,92.41
2018-05-11T00:45:28.756Z,92.60
2018-05-11T00:46:28.697Z,92.88
2018-05-11T00:47:28.615Z,92.79
2018-05-11T00:48:28.547Z,92.41
2018-05-11T00:49:28.458Z,93.26
2018-05-11T00:50:28.393Z,92.97
2018-05-11T00:51:28.310Z,92.97
2018-05-11T00:52:28.243Z,92.21
2018-05-11T00:53:28.157Z,92.50
2018-05-11T00:54:28.093Z,92.79
2018-05-11T00:55:28.012Z,92.41
2018-05-11T00:56:27.948Z,92.60
2018-05-11T00:57:27.861Z,92.02
2018-05-11T00:58:27.787Z,92.69
2018-05-11T00:59:27.708Z,92.31
2018-05-11T01:00:27.639Z,92.60
2018-05-11T01:01:27.562Z,93.07
2018-05-11T01:02:27.493Z,92.69
2018-05-11T01:03:27.408Z,92.88
2018-05-11T01:04:27.341Z,92.69
2018-05-11T01:05:27.259Z,92.88
2018-05-11T01:06:27.191Z,93.74
2018-05-11T01:07:27.109Z,93.65
2018-05-11T01:08:27.047Z,93.74
2018-05-11T01:09:26.964Z,93.93
2018-05-11T01:10:26.889Z,94.98
2018-05-11T01:11:26.809Z,94.31
2018-05-11T01:12:26.739Z,93.55
2018-05-11T01:13:26.656Z,94.31
2018-05-11T01:14:26.588Z,94.31
2018-05-11T01:15:26.512Z,93.93
2018-05-11T01:16:26.430Z,94.03
2018-05-11T01:17:26.371Z,94.03
2018-05-11T01:18:26.285Z,94.98
2018-05-11T01:19:26.208Z,95.27
2018-05-11T01:20:26.145Z,95.08
2018-05-11T01:21:26.055Z,94.22
2018-05-11T01:22:25.994Z,94.12
2018-05-11T01:23:25.913Z,94.79
2018-05-11T01:24:25.837Z,94.89
2018-05-11T01:25:25.761Z,94.12
2018-05-11T01:26:25.690Z,94.51
2018-05-11T01:27:25.609Z,94.98
2018-05-11T01:28:25.535Z,94.79
2018-05-11T01:29:25.465Z,94.31
2018-05-11T01:30:25.378Z,94.89
2018-05-11T01:31:25.309Z,94.89
2018-05-11T01:32:25.239Z,95.56
2018-05-11T01:33:25.167Z,95.27
2018-05-11T01:34:25.086Z,95.46
2018-05-11T01:35:25.017Z,95.36
2018-05-11T01:36:24.931Z,95.17
2018-05-11T01:37:24.858Z,95.75
2018-05-11T01:38:24.790Z,95.94
2018-05-11T01:39:24.708Z,96.03
2018-05-11T01:40:24.630Z,95.94
2018-05-11T01:41:24.564Z,96.13
2018-05-11T01:42:24.485Z,96.13
2018-05-11T01:43:24.409Z,95.84
2018-05-11T01:44:24.347Z,95.94
2018-05-11T01:45:24.258Z,95.65
2018-05-11T01:46:24.182Z,95.27
2018-05-11T01:47:24.115Z,96.22
2018-05-11T01:48:24.033Z,96.32
2018-05-11T01:49:23.958Z,96.13
2018-05-11T01:50:23.890Z,95.94
2018-05-11T01:51:23.806Z,95.75
2018-05-11T01:52:23.731Z,96.22
2018-05-11T01:53:23.663Z,96.13
2018-05-11T01:54:23.582Z,96.03
2018-05-11T01:55:23.508Z,96.03
2018-05-11T01:56:23.440Z,96.61
2018-05-11T01:57:23.364Z,96.42
2018-05-11T01:58:23.281Z,96.32
2018-05-11T01:59:23.215Z,96.51
2018-05-11T02:00:23.134Z,96.89
2018-05-11T02:01:23.054Z,96.03
2018-05-11T02:02:22.993Z,95.94
2018-05-11T02:03:22.908Z,95.94
2018-05-11T02:04:22.834Z,96.13
2018-05-11T02:05:22.768Z,96.80
2018-05-11T02:06:22.687Z,96.89
2018-05-11T02:07:22.605Z,96.32
2018-05-11T02:08:22.541Z,96.80
2018-05-11T02:09:22.455Z,96.22
2018-05-11T02:10:22.382Z,96.42
2018-05-11T02:11:22.322Z,96.89
2018-05-11T02:12:22.234Z,96.61
2018-05-11T02:13:22.161Z,96.13
2018-05-11T02:14:22.089Z,96.22
2018-05-11T02:15:22.009Z,95.84
2018-05-11T02:16:21.941Z,95.94
2018-05-11T02:17:21.866Z,95.65
2018-05-11T02:18:21.784Z,95.08
2018-05-11T02:19:21.711Z,95.65
2018-05-11T02:20:21.649Z,95.17
2018-05-11T02:21:21.559Z,96.03
2018-05-11T02:22:21.482Z,96.03
2018-05-11T02:23:21.414Z,95.65
2018-05-11T02:24:21.335Z,96.13
2018-05-11T02:25:21.264Z,96.13
2018-05-11T02:26:21.191Z,95.27
2018-05-11T02:27:21.170Z,95.08
2018-05-11T02:28:21.034Z,94.79
2018-05-11T02:29:20.967Z,94.70
2018-05-11T02:30:20.878Z,94.79
2018-05-11T02:31:20.811Z,95.08
2018-05-11T02:32:20.740Z,94.51
2018-05-11T02:33:20.657Z,94.41
2018-05-11T02:34:20.582Z,94.31
2018-05-11T02:35:20.516Z,94.12
2018-05-11T02:36:20.430Z,94.12
2018-05-11T02:37:20.357Z,94.12
2018-05-11T02:38:20.292Z,94.31
2018-05-11T02:39:20.216Z,93.84
2018-05-11T02:40:20.133Z,94.12
2018-05-11T02:41:20.067Z,94.79
2018-05-11T02:42:19.982Z,95.08
2018-05-11T02:43:19.905Z,94.41
2018-05-11T02:44:19.843Z,95.08
2018-05-11T02:45:19.759Z,94.89
2018-05-11T02:46:19.680Z,94.79
2018-05-11T02:47:19.615Z,94.60
2018-05-11T02:48:19.533Z,95.08
2018-05-11T02:49:19.455Z,95.36
2018-05-11T02:50:19.392Z,94.79
2018-05-11T02:51:19.308Z,95.36
2018-05-11T02:52:19.242Z,95.46
2018-05-11T02:53:19.167Z,95.36
2018-05-11T02:54:19.082Z,94.79
2018-05-11T02:55:19.015Z,95.36
2018-05-11T02:56:18.940Z,95.08
2018-05-11T02:57:18.863Z,94.12
2018-05-11T02:58:18.784Z,95.17
2018-05-11T02:59:18.717Z,94.79
2018-05-11T03:00:18.638Z,95.27
2018-05-11T03:01:18.561Z,95.27
2018-05-11T03:02:18.487Z,95.17
2018-05-11T03:03:18.419Z,95.84
2018-05-11T03:04:18.330Z,95.36
2018-05-11T03:05:18.265Z,95.08
2018-05-11T03:06:18.185Z,95.75
2018-05-11T03:07:18.122Z,95.17
2018-05-11T03:08:18.040Z,94.98
2018-05-11T03:09:17.961Z,95.27
2018-05-11T03:10:17.885Z,95.17
2018-05-11T03:11:17.823Z,95.94
2018-05-11T03:12:17.737Z,95.84
2018-05-11T03:13:17.698Z,96.32
2018-05-11T03:14:17.593Z,96.13
2018-05-11T03:15:17.516Z,96.22
2018-05-11T03:16:17.428Z,96.22
2018-05-11T03:17:17.410Z,96.13
2018-05-11T03:18:17.286Z,96.70
2018-05-11T03:19:17.207Z,96.80
2018-05-11T03:20:21.938Z,96.42
2018-05-11T03:21:17.059Z,96.61
2018-05-11T03:22:16.988Z,95.94
2018-05-11T03:23:16.909Z,96.22
2018-05-11T03:24:18.844Z,96.22
2018-05-11T03:25:16.857Z,95.75
2018-05-11T03:26:16.684Z,96.03
2018-05-11T03:27:16.659Z,96.42
2018-05-11T03:28:16.569Z,95.75
2018-05-11T03:29:16.464Z,96.22
2018-05-11T03:30:16.472Z,96.13
2018-05-11T03:31:16.387Z,96.61
2018-05-11T03:32:16.229Z,96.22
2018-05-11T03:33:16.162Z,95.65
2018-05-11T03:34:16.091Z,95.84
2018-05-11T03:35:16.009Z,96.80
2018-05-11T03:36:15.941Z,96.80
2018-05-11T03:37:16.929Z,96.32
2018-05-11T03:38:15.782Z,96.32
2018-05-11T03:39:15.745Z,95.65
2018-05-11T03:40:15.640Z,95.84
2018-05-11T03:41:15.559Z,95.84
2018-05-11T03:42:15.530Z,95.65
2018-05-11T03:43:15.435Z,95.75
2018-05-11T03:44:15.334Z,96.32
2018-05-11T03:45:15.346Z,96.70
2018-05-11T03:46:15.251Z,96.03
2018-05-11T03:47:15.110Z,96.42
2018-05-11T03:48:15.034Z,96.61
2018-05-11T03:49:14.970Z,97.37
2018-05-11T03:50:14.881Z,97.37
2018-05-11T03:51:14.809Z,97.08
2018-05-11T03:52:14.732Z,97.37
2018-05-11T03:53:14.687Z,96.98
2018-05-11T03:54:14.580Z,97.18
2018-05-11T03:55:14.507Z,97.66
2018-05-11T03:56:14.436Z,97.56
2018-05-11T03:57:14.354Z,97.56
2018-05-11T03:58:14.278Z,97.94
2018-05-11T03:59:14.220Z,97.47
2018-05-11T04:00:14.127Z,97.66
2018-05-11T04:01:14.055Z,97.37
2018-05-11T04:02:13.980Z,97.75
2018-05-11T04:03:13.933Z,97.75
2018-05-11T04:04:13.829Z,96.42
2018-05-11T04:05:13.834Z,96.80
2018-05-11T04:06:13.679Z,96.70
2018-05-11T04:07:13.606Z,96.80
2018-05-11T04:08:13.547Z,96.22
2018-05-11T04:09:13.455Z,96.03
2018-05-11T04:10:13.380Z,96.42
2018-05-11T04:11:13.305Z,96.61
2018-05-11T04:12:13.270Z,95.94
2018-05-11T04:13:13.246Z,95.94
2018-05-11T04:14:13.077Z,95.56
2018-05-11T04:15:13.083Z,95.84
2018-05-11T04:16:12.936Z,95.94
2018-05-11T04:17:12.854Z,96.42
2018-05-11T04:18:12.798Z,95.56
2018-05-11T04:19:12.710Z,95.94
2018-05-11T04:20:12.624Z,95.94
2018-05-11T04:21:12.614Z,96.32
2018-05-11T04:22:12.480Z,96.13
2018-05-11T04:23:13.472Z,96.32
2018-05-11T04:24:12.329Z,96.61
2018-05-11T04:25:12.253Z,96.32
2018-05-11T04:26:12.176Z,96.98
2018-05-11T04:27:12.107Z,96.61
2018-05-11T04:28:13.034Z,96.51
2018-05-11T04:29:11.951Z,96.51
2018-05-11T04:30:11.986Z,97.08
2018-05-11T04:31:11.806Z,97.37
2018-05-11T04:32:11.731Z,96.98
2018-05-11T04:33:11.654Z,97.85
2018-05-11T04:34:11.576Z,97.94
2018-05-11T04:35:11.504Z,97.37
2018-05-11T04:36:11.432Z,96.42
2018-05-11T04:37:11.449Z,96.89
2018-05-11T04:38:11.277Z,97.94
2018-05-11T04:39:11.296Z,97.56
2018-05-11T04:40:11.205Z,98.03
2018-05-11T04:41:11.054Z,97.66
2018-05-11T04:42:11.013Z,97.94
2018-05-11T04:43:10.910Z,97.75
2018-05-11T04:44:10.825Z,97.37
2018-05-11T04:45:10.805Z,97.37
2018-05-11T04:46:10.686Z,96.98
2018-05-11T04:47:10.600Z,97.75
2018-05-11T04:48:10.528Z,97.18
2018-05-11T04:49:10.545Z,96.98
2018-05-11T04:50:10.376Z,96.89
2018-05-11T04:51:10.309Z,96.80
2018-05-11T04:52:10.230Z,96.32
2018-05-11T04:53:10.149Z,96.80
2018-05-11T04:54:10.092Z,96.80
2018-05-11T04:55:10.007Z,96.51
2018-05-11T04:56:09.922Z,96.66
2018-05-11T04:57:09.881Z,96.27
2018-05-11T04:58:09.788Z,96.03
2018-05-11T04:59:09.701Z,95.22
2018-05-11T05:00:09.629Z,95.89
2018-05-11T05:01:09.602Z,97.03
2018-05-11T05:02:09.473Z,96.27
2018-05-11T05:03:09.512Z,95.89
2018-05-11T05:04:09.416Z,95.79
2018-05-11T05:05:09.250Z,95.79
2018-05-11T05:06:09.186Z,95.61
2018-05-11T05:07:09.109Z,94.74
2018-05-11T05:08:09.028Z,94.93
2018-05-11T05:09:09.041Z,94.55
2018-05-11T05:10:08.953Z,93.98
2018-05-11T05:11:08.802Z,94.07
2018-05-11T05:12:08.753Z,93.88
2018-05-11T05:13:08.760Z,94.07
2018-05-11T05:14:08.585Z,93.50
2018-05-11T05:15:08.505Z,92.93
2018-05-11T05:16:08.471Z,92.45
2018-05-11T05:17:08.350Z,92.45
2018-05-11T05:18:08.276Z,92.64
2018-05-11T05:19:08.214Z,93.12
2018-05-11T05:20:08.126Z,92.55
2018-05-11T05:21:08.131Z,92.55
2018-05-11T05:22:08.040Z,92.45
2018-05-11T05:23:07.900Z,92.16
2018-05-11T05:24:07.951Z,92.64
2018-05-11T05:25:07.853Z,93.12
2018-05-11T05:26:07.676Z,92.59
2018-05-11T05:27:07.658Z,92.97
2018-05-11T05:28:07.568Z,92.69
2018-05-11T05:29:07.456Z,92.69
2018-05-11T05:30:07.479Z,92.50
2018-05-11T05:31:07.378Z,92.02
2018-05-11T05:32:07.230Z,91.35
2018-05-11T05:33:07.262Z,91.83
2018-05-11T05:34:07.196Z,92.21
2018-05-11T05:35:07.006Z,92.59
2018-05-11T05:36:07.009Z,92.69
2018-05-11T05:37:06.906Z,92.40
2018-05-11T05:38:06.785Z,91.74
2018-05-11T05:39:06.888Z,92.02
2018-05-11T05:40:06.727Z,91.83
2018-05-11T05:41:06.557Z,91.45
2018-05-11T05:42:06.482Z,91.35
2018-05-11T05:43:06.445Z,91.74
2018-05-11T05:44:06.332Z,91.54
2018-05-11T05:45:06.351Z,91.83
2018-05-11T05:46:06.183Z,91.64
2018-05-11T05:47:06.160Z,91.16
2018-05-11T05:48:06.034Z,90.68
2018-05-11T05:49:05.961Z,90.88
2018-05-11T05:50:05.978Z,90.97
2018-05-11T05:51:05.812Z,90.88
2018-05-11T05:52:05.825Z,90.88
2018-05-11T05:53:05.655Z,90.97
2018-05-11T05:54:05.696Z,90.88
2018-05-11T05:55:05.513Z,89.92
2018-05-11T05:56:05.504Z,90.39
2018-05-11T05:57:05.364Z,90.30
2018-05-11T05:58:05.286Z,90.20
2018-05-11T05:59:05.213Z,90.20
2018-05-11T06:00:05.146Z,90.30
2018-05-11T06:01:05.061Z,89.92
2018-05-11T06:02:05.034Z,91.06
2018-05-11T06:03:04.917Z,90.30
2018-05-11T06:04:04.840Z,90.20
2018-05-11T06:05:05.872Z,89.73
2018-05-11T06:06:04.689Z,90.01
2018-05-11T06:07:04.614Z,90.11
2018-05-11T06:08:04.544Z,90.30
2018-05-11T06:09:04.571Z,90.53
2018-05-11T06:10:04.390Z,89.58
2018-05-11T06:11:04.380Z,89.87
2018-05-11T06:12:04.241Z,89.53
2018-05-11T06:13:04.165Z,88.62
2018-05-11T06:14:04.091Z,88.62
2018-05-11T06:15:04.100Z,87.91
2018-05-11T06:16:03.943Z,88.05
2018-05-11T06:17:03.878Z,88.62
2018-05-11T06:18:03.794Z,89.01
2018-05-11T06:19:03.716Z,88.91
2018-05-11T06:20:03.646Z,88.34
2018-05-11T06:21:03.628Z,87.66
2018-05-11T06:22:03.582Z,87.48
2018-05-11T06:23:03.539Z,87.48
2018-05-11T06:24:03.343Z,87.57
2018-05-11T06:25:03.272Z,87.76
2018-05-11T06:26:03.199Z,87.57
2018-05-11T06:27:03.163Z,87.66
2018-05-11T06:28:03.048Z,87.95
2018-05-11T06:29:03.080Z,87.95
2018-05-11T06:30:02.905Z,88.15
2018-05-11T06:31:02.828Z,89.39
2018-05-11T06:32:02.750Z,89.58
2018-05-11T06:33:02.796Z,90.34
2018-05-11T06:34:02.605Z,90.34
2018-05-11T06:35:02.607Z,90.63
2018-05-11T06:36:02.455Z,90.16
2018-05-11T06:37:02.385Z,88.24
2018-05-11T06:38:02.422Z,87.95
2018-05-11T06:39:02.233Z,88.24
2018-05-11T06:40:02.228Z,88.05
2018-05-11T06:41:02.085Z,87.57
2018-05-11T06:42:02.038Z,87.19
2018-05-11T06:43:01.937Z,86.71
2018-05-11T06:44:01.949Z,86.90
2018-05-11T06:45:01.787Z,86.71
2018-05-11T06:46:01.771Z,87.00
2018-05-11T06:47:01.631Z,87.19
2018-05-11T06:48:01.674Z,86.80
2018-05-11T06:49:01.496Z,86.71
2018-05-11T06:50:01.412Z,86.71
2018-05-11T06:51:01.338Z,86.80
2018-05-11T06:52:01.285Z,88.15
2018-05-11T06:53:01.190Z,87.38
2018-05-11T06:54:01.194Z,87.57
2018-05-11T06:55:01.042Z,87.48
2018-05-11T06:56:01.005Z,87.76
2018-05-11T06:57:00.891Z,87.48
2018-05-11T06:58:00.916Z,87.48
2018-05-11T06:59:00.745Z,87.57
2018-05-11T07:00:00.727Z,87.38
2018-05-11T07:01:00.598Z,87.38
2018-05-11T07:02:01.560Z,87.76
2018-05-11T07:03:00.444Z,87.48
2018-05-11T07:04:00.442Z,87.29
2018-05-11T07:05:00.298Z,87.00
2018-05-11T07:06:00.255Z,87.00
2018-05-11T07:07:00.144Z,86.80
2018-05-11T07:08:00.208Z,87.00
2018-05-11T07:09:00.000Z,86.52
2018-05-11T07:09:59.975Z,86.43
2018-05-11T07:10:59.849Z,87.09
2018-05-11T07:11:59.889Z,87.19
2018-05-11T07:12:59.699Z,86.90
2018-05-11T07:13:59.697Z,86.71
2018-05-11T07:14:59.557Z,86.33
2018-05-11T07:15:59.506Z,86.90
2018-05-11T07:16:59.408Z,87.95
2018-05-11T07:17:59.329Z,87.57
2018-05-11T07:18:59.323Z,87.38
2018-05-11T07:19:59.181Z,87.29
2018-05-11T07:21:00.156Z,87.48
2018-05-11T07:21:59.035Z,86.90
2018-05-11T07:22:59.043Z,86.14
2018-05-11T07:23:58.891Z,86.04
2018-05-11T07:24:59.874Z,86.90
2018-05-11T07:25:58.734Z,86.61
2018-05-11T07:26:58.764Z,86.90
2018-05-11T07:28:07.017Z,86.52
2018-05-11T07:28:58.571Z,86.43
2018-05-11T07:29:58.439Z,87.00
2018-05-11T07:30:58.483Z,86.52
2018-05-11T07:31:58.287Z,86.43
2018-05-11T07:32:58.291Z,86.14
2018-05-11T07:33:58.139Z,86.43
2018-05-11T07:34:58.068Z,87.48
2018-05-11T07:35:58.108Z,87.66
2018-05-11T07:36:57.919Z,87.29
2018-05-11T07:37:57.838Z,87.57
2018-05-11T07:38:57.819Z,87.48
2018-05-11T07:39:57.696Z,87.48
2018-05-11T07:40:57.616Z,88.43
2018-05-11T07:41:57.636Z,88.62
2018-05-11T07:42:57.482Z,87.48
2018-05-11T07:43:57.391Z,87.57
2018-05-11T07:44:57.352Z,86.90
2018-05-11T07:45:57.249Z,86.14
2018-05-11T07:46:57.175Z,86.47
2018-05-11T07:47:57.103Z,86.94
2018-05-11T07:48:57.028Z,85.61
2018-05-11T07:49:56.958Z,86.85
2018-05-11T07:50:56.982Z,86.66
2018-05-11T07:51:56.812Z,87.04
2018-05-11T07:52:56.735Z,86.94
2018-05-11T07:53:57.726Z,87.14
2018-05-11T07:54:56.584Z,87.62
2018-05-11T07:55:56.509Z,87.62
2018-05-11T07:56:56.512Z,87.81
2018-05-11T07:57:56.359Z,87.62
2018-05-11T07:58:56.285Z,87.14
2018-05-11T07:59:56.329Z,87.33
2018-05-11T08:00:56.137Z,88.19
2018-05-11T08:01:56.094Z,88.09
2018-05-11T08:02:56.043Z,87.43
2018-05-11T08:03:55.924Z,87.33
2018-05-11T08:04:55.841Z,87.90
2018-05-11T08:05:55.855Z,87.81
2018-05-11T08:06:55.692Z,86.47
2018-05-11T08:07:55.622Z,86.57
2018-05-11T08:08:55.573Z,86.76
2018-05-11T08:09:55.471Z,88.00
2018-05-11T08:10:55.397Z,88.00
2018-05-11T08:11:55.386Z,87.62
2018-05-11T08:12:55.252Z,86.57
2018-05-11T08:13:55.174Z,85.89
2018-05-11T08:14:55.205Z,85.22
2018-05-11T08:15:55.027Z,84.36
2018-05-11T08:16:54.955Z,85.80
2018-05-11T08:17:54.922Z,85.51
2018-05-11T08:18:54.803Z,85.89
2018-05-11T08:19:54.746Z,85.55
2018-05-11T08:20:54.733Z,85.51
2018-05-11T08:21:54.585Z,84.65
2018-05-11T08:22:54.511Z,84.27
2018-05-11T08:23:54.551Z,84.41
2018-05-11T08:24:54.365Z,83.89
2018-05-11T08:25:54.330Z,83.73
2018-05-11T08:26:54.317Z,83.36
2018-05-11T08:27:54.142Z,84.17
2018-05-11T08:28:54.076Z,83.64
2018-05-11T08:29:54.089Z,83.83
2018-05-11T08:30:53.921Z,84.22
2018-05-11T08:31:53.846Z,84.12
2018-05-11T08:32:53.778Z,83.93
2018-05-11T08:33:53.699Z,84.12
2018-05-11T08:34:53.633Z,83.93
2018-05-11T08:35:53.645Z,83.64
2018-05-11T08:36:53.476Z,83.45
2018-05-11T08:37:53.404Z,83.36
2018-05-11T08:38:53.426Z,83.83
2018-05-11T08:39:53.256Z,84.41
2018-05-11T08:40:53.182Z,83.93
2018-05-11T08:41:53.139Z,83.06
2018-05-11T08:42:53.031Z,82.97
2018-05-11T08:43:52.961Z,82.97
2018-05-11T08:44:52.962Z,83.64
2018-05-11T08:45:52.817Z,83.16
2018-05-11T08:46:52.739Z,82.20
2018-05-11T08:47:52.780Z,82.78
2018-05-11T08:48:52.595Z,84.31
2018-05-11T08:49:52.521Z,84.12
2018-05-11T08:50:52.489Z,83.26
2018-05-11T08:51:52.473Z,84.12
2018-05-11T08:52:52.304Z,84.59
2018-05-11T08:53:52.231Z,84.59
2018-05-11T08:54:52.207Z,82.97
2018-05-11T08:55:52.157Z,82.59
2018-05-11T08:56:52.117Z,83.16
2018-05-11T08:57:51.934Z,83.36
2018-05-11T08:58:51.862Z,85.27
2018-05-11T08:59:51.833Z,86.04
2018-05-11T09:00:51.712Z,86.32
2018-05-11T09:01:51.741Z,85.08
2018-05-11T09:02:51.561Z,85.17
2018-05-11T09:03:51.554Z,85.17
2018-05-11T09:04:51.478Z,84.69
2018-05-11T09:05:51.353Z,84.50
2018-05-11T09:06:51.368Z,84.41
2018-05-11T09:07:51.276Z,84.50
2018-05-11T09:08:51.124Z,85.27
2018-05-11T09:09:51.085Z,84.50
2018-05-11T09:10:50.979Z,85.75
2018-05-11T09:11:50.994Z,84.41
2018-05-11T09:12:50.833Z,84.41
2018-05-11T09:13:50.761Z,84.79
2018-05-11T09:14:50.736Z,85.27
2018-05-11T09:15:50.610Z,85.55
2018-05-11T09:16:50.538Z,85.17
2018-05-11T09:17:50.462Z,85.08
2018-05-11T09:18:50.426Z,84.88
2018-05-11T09:19:50.322Z,84.31
2018-05-11T09:20:50.339Z,85.36
2018-05-11T09:21:50.176Z,86.04
2018-05-11T09:22:50.096Z,85.55
2018-05-11T09:23:51.075Z,86.04
2018-05-11T09:24:49.950Z,85.84
2018-05-11T09:25:49.878Z,85.55
2018-05-11T09:26:49.869Z,84.98
2018-05-11T09:27:49.732Z,85.55
2018-05-11T09:28:49.666Z,85.17
2018-05-11T09:29:49.684Z,84.69
2018-05-11T09:30:49.520Z,85.36
2018-05-11T09:31:49.453Z,85.27
2018-05-11T09:32:49.368Z,85.27
2018-05-11T09:33:49.401Z,85.84
2018-05-11T09:34:49.222Z,85.84
2018-05-11T09:35:49.213Z,87.37
2018-05-11T09:36:49.073Z,85.94
2018-05-11T09:37:49.020Z,85.55
2018-05-11T09:38:48.932Z,85.84
2018-05-11T09:39:48.977Z,86.04
2018-05-11T09:40:48.786Z,86.04
2018-05-11T09:41:48.717Z,87.08
2018-05-11T09:42:48.636Z,86.90
2018-05-11T09:43:48.558Z,86.22
2018-05-11T09:44:48.490Z,84.69
2018-05-11T09:45:48.433Z,85.27
2018-05-11T09:46:48.352Z,86.22
2018-05-11T09:47:48.274Z,87.41
2018-05-11T09:48:48.203Z,88.85
2018-05-11T09:49:48.124Z,87.90
2018-05-11T09:50:48.058Z,87.55
2018-05-11T09:51:48.092Z,86.69
2018-05-11T09:52:47.995Z,85.74
2018-05-11T09:53:47.835Z,84.39
2018-05-11T09:54:47.805Z,84.11
2018-05-11T09:55:47.708Z,83.25
2018-05-11T09:56:47.612Z,83.15
2018-05-11T09:57:47.615Z,82.67
2018-05-11T09:58:47.517Z,83.05
2018-05-11T09:59:47.394Z,82.09
2018-05-11T10:00:47.498Z,82.29
2018-05-11T10:01:47.355Z,82.96
2018-05-11T10:02:47.177Z,82.67
2018-05-11T10:03:47.142Z,82.00
2018-05-11T10:04:47.049Z,82.57
2018-05-11T10:05:46.960Z,83.15
2018-05-11T10:06:46.959Z,83.76
2018-05-11T10:07:46.817Z,83.72
2018-05-11T10:08:46.765Z,83.92
2018-05-11T10:09:46.666Z,82.19
2018-05-11T10:10:46.600Z,82.57
2018-05-11T10:11:46.525Z,83.72
2018-05-11T10:12:46.454Z,81.85
2018-05-11T10:13:46.499Z,82.42
2018-05-11T10:14:46.311Z,83.00
2018-05-11T10:15:46.239Z,83.86
2018-05-11T10:16:46.175Z,83.38
2018-05-11T10:17:46.083Z,82.52
2018-05-11T10:18:47.021Z,81.08
2018-05-11T10:19:45.951Z,80.22
2018-05-11T10:20:45.904Z,80.79
2018-05-11T10:21:45.804Z,81.37
2018-05-11T10:22:45.736Z,79.93
2018-05-11T10:23:45.653Z,80.03
2018-05-11T10:24:45.589Z,80.51
2018-05-11T10:25:45.523Z,79.64
2018-05-11T10:26:45.433Z,80.03
2018-05-11T10:27:45.378Z,81.75
2018-05-11T10:28:45.311Z,81.27
2018-05-11T10:29:45.221Z,80.94
2018-05-11T10:30:45.151Z,80.94
2018-05-11T10:31:45.082Z,82.09
2018-05-11T10:32:45.002Z,82.81
2018-05-11T10:33:44.945Z,82.23
2018-05-11T10:34:44.867Z,81.18
2018-05-11T10:35:44.784Z,80.85
2018-05-11T10:36:44.723Z,81.81
2018-05-11T10:37:44.648Z,82.19
2018-05-11T10:38:44.568Z,80.66
2018-05-11T10:39:44.597Z,80.27
2018-05-11T10:40:44.431Z,80.08
2018-05-11T10:41:44.356Z,80.18
2018-05-11T10:42:44.288Z,81.18
2018-05-11T10:43:44.212Z,81.08
2018-05-11T10:44:44.158Z,82.14
2018-05-11T10:45:44.071Z,81.75
2018-05-11T10:46:43.997Z,82.62
2018-05-11T10:47:43.923Z,83.09
2018-05-11T10:48:43.909Z,82.42
2018-05-11T10:49:43.787Z,83.29
2018-05-11T10:50:43.703Z,82.62
2018-05-11T10:51:43.641Z,82.04
2018-05-11T10:52:43.563Z,80.60
2018-05-11T10:53:43.485Z,79.36
2018-05-11T10:54:43.422Z,79.07
2018-05-11T10:55:43.350Z,80.03
2018-05-11T10:56:43.275Z,80.41
2018-05-11T10:57:43.203Z,80.89
2018-05-11T10:58:43.133Z,82.32
2018-05-11T10:59:43.052Z,80.51
2018-05-11T11:00:42.985Z,80.32
2018-05-11T11:01:42.908Z,80.60
2018-05-11T11:02:42.835Z,81.27
2018-05-11T11:03:42.771Z,81.66
2018-05-11T11:04:42.764Z,82.62
2018-05-11T11:05:42.616Z,82.14
2018-05-11T11:06:42.560Z,79.93
2018-05-11T11:07:42.582Z,79.93
2018-05-11T11:08:42.411Z,79.74
2018-05-11T11:09:42.388Z,79.16
2018-05-11T11:10:42.292Z,79.93
2018-05-11T11:11:42.190Z,79.45
2018-05-11T11:12:42.207Z,79.30
2018-05-11T11:13:42.109Z,79.59
2018-05-11T11:14:41.973Z,81.60
2018-05-11T11:16:09.571Z,80.16
2018-05-11T11:16:41.926Z,79.59
2018-05-11T11:17:41.761Z,79.30
2018-05-11T11:18:41.740Z,78.25
2018-05-11T11:19:41.615Z,77.71
2018-05-11T11:20:41.544Z,77.67
2018-05-11T11:21:41.549Z,76.62
2018-05-11T11:22:41.456Z,76.62
2018-05-11T11:23:41.329Z,78.05
2018-05-11T11:24:41.367Z,79.11
2018-05-11T11:25:41.270Z,79.91
2018-05-11T11:26:41.116Z,79.34
2018-05-11T11:27:41.077Z,78.96
2018-05-11T11:28:41.087Z,78.67
2018-05-11T11:29:40.893Z,77.90
2018-05-11T11:30:40.897Z,77.23
2018-05-11T11:31:40.800Z,77.90
2018-05-11T11:32:40.698Z,78.57
2018-05-11T11:33:40.711Z,79.11
2018-05-11T11:34:40.658Z,77.95
2018-05-11T11:35:40.469Z,77.86
2018-05-11T11:36:40.427Z,78.53
2018-05-11T11:37:45.044Z,78.92
2018-05-11T11:38:40.255Z,79.68
2018-05-11T11:39:40.241Z,80.35
2018-05-11T11:40:40.144Z,80.35
2018-05-11T11:41:40.035Z,80.07
2018-05-11T11:42:40.072Z,79.82
2018-05-11T11:43:39.892Z,80.01
2018-05-11T11:44:39.855Z,80.87
2018-05-11T11:45:39.836Z,78.96
2018-05-11T11:46:39.681Z,77.80
2018-05-11T11:47:39.619Z,75.40
2018-05-11T11:48:39.656Z,75.60
2018-05-11T11:49:39.463Z,75.98
2018-05-11T11:50:39.393Z,76.37
2018-05-11T11:51:39.364Z,77.71
2018-05-11T11:52:39.269Z,76.37
2018-05-11T11:53:39.180Z,76.37
2018-05-11T11:54:39.181Z,76.46
2018-05-11T11:55:39.088Z,76.59
2018-05-11T11:56:38.963Z,76.50
2018-05-11T11:57:38.901Z,76.21
2018-05-11T11:58:38.827Z,76.40
2018-05-11T11:59:38.748Z,77.26
2018-05-11T12:00:38.706Z,77.94
2018-05-11T12:01:38.690Z,77.65
2018-05-11T12:02:38.535Z,77.17
2018-05-11T12:03:38.523Z,76.50
2018-05-11T12:04:38.392Z,76.02
2018-05-11T12:05:38.333Z,76.88
2018-05-11T12:06:38.337Z,76.40
2018-05-11T12:07:38.241Z,77.17
2018-05-11T12:08:38.108Z,75.73
2018-05-11T12:09:38.152Z,76.59
2018-05-11T12:10:37.967Z,77.08
2018-05-11T12:11:37.970Z,77.46
2018-05-11T12:12:37.826Z,77.94
2018-05-11T12:13:37.750Z,77.65
2018-05-11T12:14:37.682Z,76.98
2018-05-11T12:15:37.682Z,75.35
2018-05-11T12:16:37.545Z,75.45
2018-05-11T12:17:37.469Z,75.82
2018-05-11T12:18:37.496Z,75.82
2018-05-11T12:19:37.322Z,75.35
2018-05-11T12:20:37.257Z,76.21
2018-05-11T12:21:37.212Z,74.96
2018-05-11T12:22:37.114Z,75.31
2018-05-11T12:23:37.043Z,75.50
2018-05-11T12:24:37.045Z,76.02
2018-05-11T12:25:36.913Z,76.46
2018-05-11T12:26:36.838Z,75.79
2018-05-11T12:27:36.842Z,75.60
2018-05-11T12:28:36.688Z,75.70
2018-05-11T12:29:36.618Z,75.79
2018-05-11T12:30:36.656Z,76.37
2018-05-11T12:31:36.471Z,77.13
2018-05-11T12:32:36.401Z,77.33
2018-05-11T12:33:36.393Z,76.46
2018-05-11T12:34:36.260Z,76.40
2018-05-11T12:35:36.184Z,76.40
2018-05-11T12:36:36.181Z,76.40
2018-05-11T12:37:36.046Z,78.70
2018-05-11T12:38:35.990Z,78.80
2018-05-11T12:39:35.909Z,77.78
2018-05-11T12:40:35.829Z,77.31
2018-05-11T12:41:35.760Z,75.10
2018-05-11T12:42:35.701Z,74.23
2018-05-11T12:43:35.624Z,73.56
2018-05-11T12:44:35.620Z,73.94
2018-05-11T12:45:35.487Z,73.94
2018-05-11T12:46:35.432Z,73.27
2018-05-11T12:47:35.336Z,75.00
2018-05-11T12:48:35.339Z,74.81
2018-05-11T12:49:35.195Z,74.75
2018-05-11T12:50:35.126Z,75.52
2018-05-11T12:51:35.066Z,74.46